createdAt,value
2024-04-30T00:02:08.864Z,2.95
2024-04-30T00:04:35.649Z,2.60
2024-04-30T00:07:02.506Z,2.67
2024-04-30T00:09:29.201Z,2.70
2024-04-30T00:11:55.910Z,2.47
2024-04-30T00:14:22.553Z,2.95
2024-04-30T00:16:49.249Z,3.10
2024-04-30T00:19:15.970Z,3.10
2024-04-30T00:21:43.235Z,2.80
2024-04-30T00:24:10.460Z,2.75
2024-04-30T00:26:37.115Z,2.97
2024-04-30T00:29:04.138Z,2.37
2024-04-30T00:31:31.466Z,2.80
2024-04-30T00:33:58.251Z,2.45
2024-04-30T00:36:25.072Z,2.45
2024-04-30T00:38:51.748Z,2.63
2024-04-30T00:41:18.408Z,2.43
2024-04-30T00:43:45.146Z,2.78
2024-04-30T00:46:11.878Z,2.60
2024-04-30T00:48:40.400Z,2.60
2024-04-30T00:51:08.155Z,2.90
2024-04-30T00:53:35.367Z,2.77
2024-04-30T00:56:02.339Z,2.58
2024-04-30T00:58:29.317Z,2.58
2024-04-30T01:00:56.425Z,2.40
2024-04-30T01:03:23.212Z,2.83
2024-04-30T01:05:49.951Z,3.00
2024-04-30T01:08:16.603Z,2.80
2024-04-30T01:10:43.410Z,2.70
2024-04-30T01:13:11.430Z,3.00
2024-04-30T01:15:38.175Z,2.95
2024-04-30T01:18:05.752Z,2.90
2024-04-30T01:20:32.539Z,2.53
2024-04-30T01:22:59.256Z,2.90
2024-04-30T01:25:25.945Z,3.10
2024-04-30T01:27:52.666Z,2.97
2024-04-30T01:30:19.388Z,3.03
2024-04-30T01:32:46.210Z,2.95
2024-04-30T01:35:13.060Z,3.10
2024-04-30T01:37:39.781Z,3.05
2024-04-30T01:40:07.219Z,3.47
2024-04-30T01:42:33.973Z,2.90
2024-04-30T01:45:00.615Z,3.10
2024-04-30T01:47:27.663Z,3.50
2024-04-30T01:49:54.340Z,3.20
2024-04-30T01:52:21.109Z,3.60
2024-04-30T01:54:47.801Z,3.13
2024-04-30T01:57:14.496Z,3.20
2024-04-30T01:59:44.476Z,3.60
2024-04-30T02:02:11.772Z,3.30
2024-04-30T02:04:46.323Z,3.40
2024-04-30T02:07:16.467Z,2.83
2024-04-30T02:09:43.193Z,3.30
2024-04-30T02:12:09.910Z,3.22
2024-04-30T02:14:36.579Z,3.00
2024-04-30T02:17:03.504Z,3.50
2024-04-30T02:19:30.377Z,3.00
2024-04-30T02:21:57.278Z,3.45
2024-04-30T02:24:24.530Z,3.35
2024-04-30T02:26:51.469Z,3.00
2024-04-30T02:29:18.189Z,3.35
2024-04-30T02:32:03.474Z,4.10
2024-04-30T02:34:30.236Z,3.45
2024-04-30T02:37:00.736Z,3.38
2024-04-30T02:39:27.573Z,3.78
2024-04-30T02:41:54.219Z,3.92
2024-04-30T02:44:20.892Z,3.40
2024-04-30T02:46:47.642Z,3.78
2024-04-30T02:49:14.391Z,3.65
2024-04-30T02:51:41.100Z,3.80
2024-04-30T02:54:07.843Z,4.03
2024-04-30T02:56:34.526Z,3.87
2024-04-30T02:59:01.332Z,3.95
2024-04-30T03:01:28.047Z,4.00
2024-04-30T03:03:54.817Z,3.67
2024-04-30T03:06:21.539Z,3.97
2024-04-30T03:08:48.192Z,3.47
2024-04-30T03:11:14.963Z,3.58
2024-04-30T03:13:44.780Z,3.50
2024-04-30T03:16:11.710Z,4.00
2024-04-30T03:18:44.253Z,3.95
2024-04-30T03:21:11.882Z,3.80
2024-04-30T03:23:39.309Z,3.58
2024-04-30T03:26:06.328Z,3.92
2024-04-30T03:28:33.128Z,3.83
2024-04-30T03:31:00.065Z,3.85
2024-04-30T03:33:26.835Z,3.90
2024-04-30T03:35:53.587Z,3.90
2024-04-30T03:38:20.306Z,3.60
2024-04-30T03:40:47.328Z,3.45
2024-04-30T03:43:14.058Z,3.78
2024-04-30T03:45:40.737Z,3.63
2024-04-30T03:48:07.620Z,4.07
2024-04-30T03:50:34.302Z,3.88
2024-04-30T03:53:00.961Z,4.22
2024-04-30T03:55:27.673Z,4.20
2024-04-30T03:57:54.394Z,4.00
2024-04-30T04:00:21.031Z,3.85
2024-04-30T04:02:47.815Z,4.10
2024-04-30T04:05:14.613Z,4.15
2024-04-30T04:07:41.369Z,4.10
2024-04-30T04:10:08.148Z,5.73
2024-04-30T04:12:53.556Z,4.75
2024-04-30T04:15:20.197Z,5.63
2024-04-30T04:17:46.967Z,6.15
2024-04-30T04:20:13.796Z,6.10
2024-04-30T04:22:40.569Z,4.07
2024-04-30T04:25:07.456Z,3.80
2024-04-30T04:27:34.167Z,3.90
2024-04-30T04:30:00.836Z,3.92
2024-04-30T04:32:27.659Z,3.45
2024-04-30T04:34:54.403Z,3.57
2024-04-30T04:37:22.364Z,3.30
2024-04-30T04:39:50.121Z,4.93
2024-04-30T04:42:16.774Z,4.65
2024-04-30T04:44:43.429Z,4.97
2024-04-30T04:47:10.143Z,4.67
2024-04-30T04:49:37.015Z,4.38
2024-04-30T04:52:04.017Z,4.40
2024-04-30T04:54:30.794Z,4.80
2024-04-30T04:56:57.431Z,4.63
2024-04-30T04:59:24.151Z,3.37
2024-04-30T05:01:50.987Z,4.20
2024-04-30T05:04:17.857Z,3.38
2024-04-30T05:06:45.649Z,3.13
2024-04-30T05:09:12.349Z,6.28
2024-04-30T05:11:39.133Z,3.77
2024-04-30T05:14:05.861Z,3.47
2024-04-30T05:16:32.751Z,3.67
2024-04-30T05:19:02.361Z,3.13
2024-04-30T05:21:29.132Z,3.20
2024-04-30T05:23:55.816Z,2.87
2024-04-30T05:26:22.463Z,2.63
2024-04-30T05:28:49.118Z,2.80
2024-04-30T05:31:15.833Z,2.45
2024-04-30T05:33:42.609Z,2.78
2024-04-30T05:36:09.368Z,2.70
2024-04-30T05:38:36.020Z,2.70
2024-04-30T05:41:02.691Z,2.88
2024-04-30T05:43:29.374Z,2.85
2024-04-30T05:45:56.131Z,3.17
2024-04-30T05:48:22.808Z,2.73
2024-04-30T05:50:49.499Z,2.70
2024-04-30T05:53:16.164Z,2.70
2024-04-30T05:55:42.987Z,2.85
2024-04-30T05:58:13.986Z,3.13
2024-04-30T06:00:40.684Z,2.87
2024-04-30T06:03:08.708Z,2.80
2024-04-30T06:05:35.471Z,2.65
2024-04-30T06:08:02.208Z,3.10
2024-04-30T06:10:28.966Z,2.65
2024-04-30T06:12:55.643Z,2.27
2024-04-30T06:15:22.356Z,2.75
2024-04-30T06:17:49.240Z,2.90
2024-04-30T06:20:16.019Z,2.65
2024-04-30T06:22:42.791Z,2.53
2024-04-30T06:25:09.512Z,2.50
2024-04-30T06:27:36.209Z,2.90
2024-04-30T06:30:02.965Z,2.67
2024-04-30T06:32:29.686Z,2.50
2024-04-30T06:34:56.502Z,2.80
2024-04-30T06:37:23.313Z,2.23
2024-04-30T06:39:50.023Z,2.90
2024-04-30T06:42:17.879Z,2.70
2024-04-30T06:44:45.035Z,2.40
2024-04-30T06:47:13.111Z,2.40
2024-04-30T06:49:39.847Z,2.23
2024-04-30T06:52:06.909Z,2.28
2024-04-30T06:54:33.870Z,3.05
2024-04-30T06:57:00.623Z,2.38
2024-04-30T06:59:27.337Z,2.38
2024-04-30T07:01:54.018Z,2.70
2024-04-30T07:04:20.741Z,2.15
2024-04-30T07:06:47.478Z,2.30
2024-04-30T07:09:14.098Z,2.10
2024-04-30T07:11:40.834Z,2.50
2024-04-30T07:14:07.648Z,2.20
2024-04-30T07:16:48.496Z,2.00
2024-04-30T07:19:19.398Z,2.05
2024-04-30T07:21:46.154Z,1.83
2024-04-30T07:24:12.890Z,1.90
2024-04-30T07:26:39.666Z,1.90
2024-04-30T07:29:06.352Z,1.60
2024-04-30T07:31:33.158Z,1.48
2024-04-30T07:33:59.941Z,1.80
2024-04-30T07:36:26.603Z,1.70
2024-04-30T07:38:53.274Z,2.13
2024-04-30T07:41:20.025Z,1.80
2024-04-30T07:43:47.562Z,1.77
2024-04-30T07:46:14.566Z,2.15
2024-04-30T07:48:41.360Z,2.20
2024-04-30T07:51:08.078Z,1.90
2024-04-30T07:53:34.718Z,1.80
2024-04-30T07:56:01.383Z,2.50
2024-04-30T07:58:28.125Z,2.00
2024-04-30T08:00:54.850Z,2.10
2024-04-30T08:03:21.591Z,2.07
2024-04-30T08:08:15.847Z,2.10
2024-04-30T08:10:43.462Z,1.75
2024-04-30T08:13:10.264Z,1.85
2024-04-30T08:15:37.026Z,1.90
2024-04-30T08:18:04.010Z,2.25
2024-04-30T08:20:30.732Z,1.75
2024-04-30T08:22:57.479Z,1.80
2024-04-30T08:25:24.221Z,1.80
2024-04-30T08:27:50.930Z,1.60
2024-04-30T08:30:17.643Z,1.70
2024-04-30T08:32:44.760Z,1.85
2024-04-30T08:35:11.458Z,1.38
2024-04-30T08:37:47.345Z,1.30
2024-04-30T08:40:21.216Z,1.87
2024-04-30T08:42:50.287Z,1.42
2024-04-30T08:45:22.510Z,1.42
2024-04-30T08:47:51.618Z,2.03
2024-04-30T08:52:48.473Z,1.67
2024-04-30T08:55:17.677Z,1.90
2024-04-30T08:57:45.128Z,1.67
2024-04-30T09:00:12.596Z,1.60
2024-04-30T09:02:40.867Z,2.00
2024-04-30T09:05:08.178Z,1.40
2024-04-30T09:07:35.079Z,1.40
2024-04-30T09:10:02.961Z,2.03
2024-04-30T09:12:31.766Z,1.80
2024-04-30T09:14:58.474Z,1.77
2024-04-30T09:17:29.068Z,1.70
2024-04-30T09:20:05.854Z,1.55
2024-04-30T09:22:53.096Z,1.67
2024-04-30T09:25:31.649Z,1.85
2024-04-30T09:27:58.449Z,1.80
2024-04-30T09:30:25.263Z,2.00
2024-04-30T09:32:52.106Z,1.45
2024-04-30T09:35:26.541Z,1.65
2024-04-30T09:38:04.869Z,1.63
2024-04-30T09:40:32.122Z,1.70
2024-04-30T09:43:00.163Z,1.87
2024-04-30T09:45:30.454Z,1.75
2024-04-30T09:47:57.623Z,1.52
2024-04-30T09:50:24.487Z,2.13
2024-04-30T09:52:51.608Z,1.63
2024-04-30T09:55:19.921Z,1.63
2024-04-30T09:57:49.426Z,1.65
2024-04-30T10:00:21.621Z,1.80
2024-04-30T10:02:55.439Z,2.03
2024-04-30T10:05:29.545Z,2.00
2024-04-30T10:07:57.970Z,1.70
2024-04-30T10:10:28.377Z,1.85
2024-04-30T10:13:06.566Z,1.80
2024-04-30T10:15:33.416Z,1.85
2024-04-30T10:18:00.300Z,1.48
2024-04-30T10:20:28.315Z,1.70
2024-04-30T10:22:55.177Z,1.65
2024-04-30T10:25:25.782Z,2.08
2024-04-30T10:28:04.740Z,1.60
2024-04-30T10:30:31.482Z,1.88
2024-04-30T10:32:58.254Z,1.70
2024-04-30T10:35:25.028Z,1.92
2024-04-30T10:37:52.036Z,1.88
2024-04-30T10:40:20.805Z,1.85
2024-04-30T10:42:47.506Z,1.98
2024-04-30T10:45:26.563Z,1.90
2024-04-30T10:47:53.366Z,1.95
2024-04-30T10:50:20.884Z,2.10
2024-04-30T10:52:48.020Z,1.85
2024-04-30T10:55:18.786Z,1.80
2024-04-30T10:57:45.983Z,1.73
2024-04-30T11:00:13.092Z,1.63
2024-04-30T11:02:41.584Z,2.15
2024-04-30T11:05:16.094Z,1.85
2024-04-30T11:07:54.568Z,2.15
2024-04-30T11:10:34.470Z,2.00
2024-04-30T11:13:04.598Z,1.65
2024-04-30T11:15:31.773Z,1.92
2024-04-30T11:17:58.631Z,2.28
2024-04-30T11:20:25.617Z,2.25
2024-04-30T11:22:52.335Z,1.60
2024-04-30T11:25:19.026Z,1.92
2024-04-30T11:27:45.728Z,2.00
2024-04-30T11:30:12.601Z,1.80
2024-04-30T11:32:39.534Z,2.13
2024-04-30T11:35:06.397Z,2.30
2024-04-30T11:37:34.584Z,2.78
2024-04-30T11:40:01.416Z,2.17
2024-04-30T11:42:34.391Z,2.50
2024-04-30T11:45:06.338Z,2.42
2024-04-30T11:47:33.154Z,2.40
2024-04-30T11:49:59.950Z,2.13
2024-04-30T11:52:26.702Z,2.10
2024-04-30T11:54:53.373Z,2.20
2024-04-30T11:57:20.046Z,2.35
2024-04-30T11:59:47.168Z,2.47
2024-04-30T12:02:14.026Z,2.25
2024-04-30T12:04:40.996Z,2.17
2024-04-30T12:07:07.998Z,2.55
2024-04-30T12:09:34.794Z,2.63
2024-04-30T12:12:01.470Z,2.43
2024-04-30T12:14:28.183Z,2.15
2024-04-30T12:16:55.069Z,2.55
2024-04-30T12:19:21.892Z,2.03
2024-04-30T12:21:48.602Z,2.17
2024-04-30T12:24:15.267Z,2.03
2024-04-30T12:26:42.085Z,2.22
2024-04-30T12:29:08.718Z,2.20
2024-04-30T12:31:35.665Z,2.10
2024-04-30T12:34:02.405Z,2.05
2024-04-30T12:36:29.999Z,2.10
2024-04-30T12:38:56.772Z,2.28
2024-04-30T12:41:23.499Z,1.90
2024-04-30T12:43:50.282Z,2.47
2024-04-30T12:46:16.984Z,2.00
2024-04-30T12:48:43.786Z,1.87
2024-04-30T12:51:10.625Z,2.30
2024-04-30T12:53:38.138Z,2.05
2024-04-30T12:56:05.223Z,2.03
2024-04-30T12:58:31.994Z,2.30
2024-04-30T13:00:58.791Z,2.10
2024-04-30T13:03:26.011Z,2.20
2024-04-30T13:05:54.200Z,2.40
2024-04-30T13:08:22.170Z,2.00
2024-04-30T13:10:49.074Z,2.47
2024-04-30T13:13:15.993Z,2.43
2024-04-30T13:15:42.666Z,2.40
2024-04-30T13:18:09.324Z,2.58
2024-04-30T13:20:36.097Z,2.20
2024-04-30T13:23:02.792Z,2.58
2024-04-30T13:25:30.082Z,2.23
2024-04-30T13:27:58.618Z,2.20
2024-04-30T13:30:25.347Z,2.22
2024-04-30T13:32:52.113Z,2.13
2024-04-30T13:35:19.854Z,2.38
2024-04-30T13:37:46.608Z,2.27
2024-04-30T13:40:13.442Z,2.03
2024-04-30T13:42:40.207Z,2.05
2024-04-30T13:45:06.945Z,2.55
2024-04-30T13:47:34.566Z,2.00
2024-04-30T13:50:01.282Z,1.97
2024-04-30T13:52:27.987Z,1.98
2024-04-30T13:54:54.698Z,2.20
2024-04-30T13:57:21.422Z,2.28
2024-04-30T13:59:48.127Z,2.90
2024-04-30T14:02:17.317Z,3.97
2024-04-30T14:04:44.878Z,3.40
2024-04-30T14:07:11.641Z,2.88
2024-04-30T14:09:38.342Z,1.98
2024-04-30T14:12:07.319Z,2.25
2024-04-30T14:14:37.785Z,1.90
2024-04-30T14:17:05.450Z,2.13
2024-04-30T14:19:34.719Z,2.20
2024-04-30T14:22:01.890Z,2.20
2024-04-30T14:24:28.583Z,2.50
2024-04-30T14:26:55.246Z,2.00
2024-04-30T14:29:21.976Z,2.13
2024-04-30T14:31:48.745Z,2.28
2024-04-30T14:34:15.508Z,2.30
2024-04-30T14:36:45.420Z,2.38
2024-04-30T14:39:12.626Z,2.20
2024-04-30T14:41:42.159Z,2.13
2024-04-30T14:44:08.861Z,2.30
2024-04-30T14:46:35.767Z,2.35
2024-04-30T14:49:02.684Z,2.42
2024-04-30T14:51:40.004Z,2.17
2024-04-30T14:54:06.994Z,2.30
2024-04-30T14:56:36.943Z,2.17
2024-04-30T14:59:03.840Z,1.98
2024-04-30T15:01:30.647Z,1.92
2024-04-30T15:03:57.569Z,2.00
2024-04-30T15:06:25.290Z,2.13
2024-04-30T15:08:51.959Z,2.10
2024-04-30T15:11:23.646Z,2.13
2024-04-30T15:13:51.029Z,2.30
2024-04-30T15:16:18.801Z,1.93
2024-04-30T15:18:47.064Z,2.25
2024-04-30T15:21:13.936Z,1.95
2024-04-30T15:23:41.734Z,2.10
2024-04-30T15:26:09.857Z,2.30
2024-04-30T15:28:36.814Z,1.90
2024-04-30T15:31:04.375Z,1.50
2024-04-30T15:33:31.125Z,2.15
2024-04-30T15:35:57.998Z,1.70
2024-04-30T15:38:24.703Z,2.25
2024-04-30T15:40:51.392Z,1.73
2024-04-30T15:43:19.393Z,2.00
2024-04-30T15:45:46.055Z,2.05
2024-04-30T15:48:12.848Z,2.08
2024-04-30T15:50:39.527Z,1.80
2024-04-30T15:53:06.190Z,1.73
2024-04-30T15:55:32.907Z,1.90
2024-04-30T15:57:59.604Z,2.10
2024-04-30T16:00:26.261Z,2.35
2024-04-30T16:02:52.947Z,2.25
2024-04-30T16:05:21.320Z,2.17
2024-04-30T16:07:51.599Z,2.25
2024-04-30T16:10:19.985Z,2.17
2024-04-30T16:12:46.697Z,2.45
2024-04-30T16:15:13.406Z,2.03
2024-04-30T16:17:40.134Z,1.80
2024-04-30T16:20:07.738Z,2.20
2024-04-30T16:22:34.495Z,2.00
2024-04-30T16:25:01.163Z,2.10
2024-04-30T16:27:27.807Z,2.08
2024-04-30T16:29:54.491Z,2.30
2024-04-30T16:32:21.198Z,2.60
2024-04-30T16:34:47.864Z,2.40
2024-04-30T16:37:14.588Z,2.08
2024-04-30T16:39:41.348Z,2.95
2024-04-30T16:42:08.544Z,2.50
2024-04-30T16:44:41.423Z,2.28
2024-04-30T16:47:11.983Z,2.42
2024-04-30T16:49:38.809Z,2.10
2024-04-30T16:52:05.598Z,2.10
2024-04-30T16:54:32.523Z,2.17
2024-04-30T16:56:59.292Z,2.13
2024-04-30T16:59:26.808Z,2.05
2024-04-30T17:01:54.162Z,2.20
2024-04-30T17:04:21.118Z,2.90
2024-04-30T17:06:52.545Z,2.63
2024-04-30T17:09:19.648Z,2.40
2024-04-30T17:11:47.815Z,2.53
2024-04-30T17:14:15.262Z,2.20
2024-04-30T17:16:41.960Z,2.30
2024-04-30T17:19:10.314Z,2.30
2024-04-30T17:21:47.266Z,2.00
2024-04-30T17:24:15.236Z,2.80
2024-04-30T17:26:43.219Z,2.38
2024-04-30T17:29:10.156Z,2.38
2024-04-30T17:31:37.797Z,2.20
2024-04-30T17:34:06.058Z,2.40
2024-04-30T17:36:37.734Z,2.05
2024-04-30T17:39:04.436Z,2.40
2024-04-30T17:41:31.217Z,2.70
2024-04-30T17:43:57.884Z,2.27
2024-04-30T17:46:27.282Z,2.53
2024-04-30T17:48:56.086Z,2.22
2024-04-30T17:51:25.336Z,2.80
2024-04-30T17:53:52.531Z,2.88
2024-04-30T17:56:20.202Z,2.30
2024-04-30T17:58:47.149Z,2.45
2024-04-30T18:01:15.136Z,3.15
2024-04-30T18:03:52.267Z,2.70
2024-04-30T18:06:19.477Z,2.72
2024-04-30T18:08:47.314Z,2.30
2024-04-30T18:11:13.974Z,2.30
2024-04-30T18:13:46.676Z,2.67
2024-04-30T18:16:16.355Z,3.00
2024-04-30T18:18:43.485Z,2.92
2024-04-30T18:21:15.273Z,2.70
2024-04-30T18:23:42.005Z,2.60
2024-04-30T18:26:11.294Z,3.13
2024-04-30T18:28:46.497Z,2.60
2024-04-30T18:31:16.634Z,2.50
2024-04-30T18:33:43.693Z,2.53
2024-04-30T18:36:12.307Z,2.47
2024-04-30T18:38:43.500Z,2.83
2024-04-30T18:41:17.580Z,2.78
2024-04-30T18:43:51.397Z,2.70
2024-04-30T18:46:18.044Z,2.60
2024-04-30T18:48:46.821Z,2.58
2024-04-30T18:51:13.883Z,2.60
2024-04-30T18:53:43.703Z,2.47
2024-04-30T18:56:13.664Z,2.78
2024-04-30T18:58:40.458Z,2.40
2024-04-30T19:01:07.270Z,2.33
2024-04-30T19:03:34.294Z,2.55
2024-04-30T19:06:01.461Z,2.95
2024-04-30T19:08:30.046Z,3.08
2024-04-30T19:10:56.711Z,2.33
2024-04-30T19:13:23.389Z,2.50
2024-04-30T19:15:50.116Z,2.53
2024-04-30T19:18:17.011Z,2.80
2024-04-30T19:20:43.773Z,2.47
2024-04-30T19:23:10.435Z,3.00
2024-04-30T19:25:37.554Z,2.78
2024-04-30T19:28:05.522Z,2.55
2024-04-30T19:30:33.044Z,2.90
2024-04-30T19:33:05.445Z,2.83
2024-04-30T19:35:32.150Z,2.43
2024-04-30T19:37:58.801Z,2.70
2024-04-30T19:40:25.436Z,2.58
2024-04-30T19:42:52.282Z,2.55
2024-04-30T19:45:19.112Z,2.53
2024-04-30T19:47:45.905Z,2.47
2024-04-30T19:50:12.562Z,2.53
2024-04-30T19:52:39.368Z,2.72
2024-04-30T19:55:06.360Z,2.70
2024-04-30T19:57:33.079Z,2.75
2024-04-30T19:59:59.756Z,2.67
2024-04-30T20:02:27.733Z,2.70
2024-04-30T20:04:54.568Z,3.03
2024-04-30T20:07:21.291Z,2.60
2024-04-30T20:09:48.000Z,2.85
2024-04-30T20:12:14.714Z,2.60
2024-04-30T20:14:41.422Z,2.95
2024-04-30T20:17:08.148Z,2.63
2024-04-30T20:19:35.686Z,3.13
2024-04-30T20:22:02.424Z,3.20
2024-04-30T20:24:29.936Z,3.03
2024-04-30T20:26:56.643Z,3.20
2024-04-30T20:29:23.359Z,3.42
2024-04-30T20:31:50.063Z,3.40
2024-04-30T20:34:16.757Z,3.40
2024-04-30T20:36:43.523Z,3.37
2024-04-30T20:39:10.207Z,3.17
2024-04-30T20:41:36.874Z,3.35
2024-04-30T20:44:03.569Z,3.30
2024-04-30T20:46:30.248Z,3.67
2024-04-30T20:48:57.141Z,3.30
2024-04-30T20:51:23.988Z,3.40
2024-04-30T20:53:50.680Z,3.42
2024-04-30T20:56:17.386Z,3.28
2024-04-30T20:58:44.031Z,3.40
2024-04-30T21:01:15.759Z,3.10
2024-04-30T21:03:43.303Z,3.28
2024-04-30T21:06:10.042Z,3.53
2024-04-30T21:08:39.848Z,3.60
2024-04-30T21:11:12.134Z,3.60
2024-04-30T21:13:38.828Z,3.27
2024-04-30T21:16:05.764Z,3.60
2024-04-30T21:18:34.250Z,3.47
2024-04-30T21:21:01.013Z,3.30
2024-04-30T21:23:27.676Z,3.30
2024-04-30T21:25:54.338Z,3.60
2024-04-30T21:28:20.996Z,3.40
2024-04-30T21:30:48.125Z,3.60
2024-04-30T21:33:14.912Z,3.00
2024-04-30T21:35:41.898Z,3.20
2024-04-30T21:38:08.611Z,3.60
2024-04-30T21:40:35.314Z,3.40
2024-04-30T21:43:02.093Z,3.60
2024-04-30T21:45:28.840Z,3.28
2024-04-30T21:47:55.564Z,3.40
2024-04-30T21:50:22.304Z,3.30
2024-04-30T21:52:49.347Z,3.35
2024-04-30T21:55:16.063Z,3.47
2024-04-30T21:57:42.797Z,3.30
2024-04-30T22:00:13.871Z,3.38
2024-04-30T22:05:08.104Z,3.40
2024-04-30T22:07:34.846Z,3.92
2024-04-30T22:10:02.096Z,3.33
2024-04-30T22:12:28.867Z,3.45
2024-04-30T22:14:55.561Z,3.90
2024-04-30T22:17:22.285Z,3.70
2024-04-30T22:19:49.233Z,4.03
2024-04-30T22:22:18.375Z,3.97
2024-04-30T22:24:45.204Z,4.00
2024-04-30T22:27:11.943Z,3.83
2024-04-30T22:29:39.211Z,4.53
2024-04-30T22:32:06.928Z,3.88
2024-04-30T22:34:33.800Z,3.55
2024-04-30T22:37:00.636Z,3.78
2024-04-30T22:39:27.344Z,3.83
2024-04-30T22:41:54.069Z,3.80
2024-04-30T22:44:20.793Z,3.92
2024-04-30T22:46:47.488Z,3.50
2024-04-30T22:49:14.308Z,3.83
2024-04-30T22:51:41.103Z,3.47
2024-04-30T22:54:07.821Z,3.42
2024-04-30T22:56:34.905Z,4.10
2024-04-30T22:59:01.760Z,3.60
2024-04-30T23:01:28.542Z,4.05
2024-04-30T23:03:55.605Z,3.40
2024-04-30T23:06:22.334Z,3.75
2024-04-30T23:08:49.053Z,3.92
2024-04-30T23:11:15.905Z,4.05
2024-04-30T23:13:42.605Z,3.80
2024-04-30T23:16:09.318Z,3.70
2024-04-30T23:18:36.097Z,4.22
2024-04-30T23:21:02.846Z,3.70
2024-04-30T23:23:29.607Z,4.03
2024-04-30T23:25:56.244Z,3.90
2024-04-30T23:28:22.903Z,3.90
2024-04-30T23:30:49.680Z,3.80
2024-04-30T23:33:16.353Z,4.05
2024-04-30T23:35:43.036Z,4.03
2024-04-30T23:38:09.706Z,3.90
2024-04-30T23:40:36.370Z,4.07
2024-04-30T23:43:03.104Z,4.00
2024-04-30T23:45:29.806Z,4.03
2024-04-30T23:47:56.554Z,3.90
2024-04-30T23:50:23.219Z,3.95
2024-04-30T23:52:49.915Z,4.30
2024-04-30T23:55:16.607Z,3.72
2024-04-30T23:57:44.303Z,3.90
